Carlton, Texas
Current Conditions -  °F | °C
As of 7:55 PM on Wednesday 26 Nov 2014 (Local Time) from KMNZ Reporting Station
Clear Clear  
Wind Chill: 45°   Ceiling: Unl
Heat Index: 48°   Visibility: 10mi
Dew Point: 35°   Wind: 6mph
Humidity: 62%   Direction: 330°NNW
Pressure: 30.32"   Gusts: NA
Location:  31.92°N, 98.17°W
Report Text: KMNZ 270155Z AUTO 33005KT 10SM CLR 09/02 A3032 RMK AO2 T00870018
Loading
Personal Weather Stations






























Interactive Weather Map New forecast layout! Learn more

10-Day Weather Forecast

Advertisements
Track Severe Weather on mobile